createdAt,value
2017-02-18T00:00:13.112Z,6.3
2017-02-18T00:01:13.842Z,6.36
2017-02-18T00:02:14.542Z,6.26
2017-02-18T00:03:15.227Z,6.27
2017-02-18T00:04:15.920Z,6.26
2017-02-18T00:05:16.617Z,6.39
2017-02-18T00:06:17.315Z,6.26
2017-02-18T00:07:18.023Z,6.31
2017-02-18T00:08:18.692Z,6.31
2017-02-18T00:09:19.376Z,6.24
2017-02-18T00:10:20.108Z,6.35
2017-02-18T00:11:20.805Z,6.27
2017-02-18T00:12:21.502Z,6.31
2017-02-18T00:13:22.249Z,6.33
2017-02-18T00:14:22.940Z,6.31
2017-02-18T00:15:23.648Z,6.24
2017-02-18T00:16:24.340Z,6.3
2017-02-18T00:17:25.040Z,6.3
2017-02-18T00:18:25.741Z,6.35
2017-02-18T00:19:26.458Z,6.39
2017-02-18T00:20:27.176Z,6.22
2017-02-18T00:21:27.883Z,6.24
2017-02-18T00:22:28.605Z,6.2
2017-02-18T00:23:29.291Z,6.24
2017-02-18T00:24:29.998Z,6.17
2017-02-18T00:25:30.691Z,6.19
2017-02-18T00:26:31.389Z,6.26
2017-02-18T00:27:32.114Z,6.22
2017-02-18T00:28:32.846Z,6.26
2017-02-18T00:29:33.530Z,6.17
2017-02-18T00:30:34.249Z,6.14
2017-02-18T00:31:34.924Z,6.19
2017-02-18T00:32:35.637Z,6.16
2017-02-18T00:33:36.370Z,6.2
2017-02-18T00:34:37.078Z,6.2
2017-02-18T00:35:37.798Z,6.26
2017-02-18T00:36:38.491Z,6.22
2017-02-18T00:37:39.265Z,6.22
2017-02-18T00:38:39.974Z,6.17
2017-02-18T00:39:40.702Z,6.16
2017-02-18T00:40:41.382Z,6.2
2017-02-18T00:41:42.107Z,6.22
2017-02-18T00:42:42.806Z,6.24
2017-02-18T00:43:43.501Z,6.12
2017-02-18T00:44:44.209Z,6.12
2017-02-18T00:45:44.905Z,6.17
2017-02-18T00:46:45.636Z,6.11
2017-02-18T00:47:46.336Z,6.08
2017-02-18T00:48:47.038Z,6.12
2017-02-18T00:49:47.749Z,6.14
2017-02-18T00:50:48.471Z,6.24
2017-02-18T00:51:49.190Z,6.12
2017-02-18T00:52:49.952Z,6.09
2017-02-18T00:53:50.668Z,6.19
2017-02-18T00:54:51.370Z,6.16
2017-02-18T00:55:52.060Z,6.19
2017-02-18T00:56:52.730Z,6.17
2017-02-18T00:57:53.455Z,6.17
2017-02-18T00:58:54.155Z,6.19
2017-02-18T00:59:54.867Z,6.19
2017-02-18T01:00:55.545Z,6.22
2017-02-18T01:01:56.261Z,6.19
2017-02-18T01:02:56.948Z,6.2
2017-02-18T01:03:57.656Z,6.17
2017-02-18T01:04:58.327Z,6.2
2017-02-18T01:05:59.010Z,6.19
2017-02-18T01:06:59.696Z,6.24
2017-02-18T01:08:00.392Z,6.26
2017-02-18T01:09:01.079Z,6.27
2017-02-18T01:10:01.757Z,6.28
2017-02-18T01:11:02.454Z,6.19
2017-02-18T01:12:03.145Z,6.24
2017-02-18T01:13:03.868Z,6.22
2017-02-18T01:14:04.594Z,6.2
2017-02-18T01:15:05.278Z,6.31
2017-02-18T01:16:06.028Z,6.19
2017-02-18T01:17:06.683Z,6.26
2017-02-18T01:18:07.375Z,6.19
2017-02-18T01:19:08.051Z,6.26
2017-02-18T01:20:08.761Z,6.26
2017-02-18T01:21:09.457Z,6.19
2017-02-18T01:22:10.156Z,6.24
2017-02-18T01:23:10.869Z,6.24
2017-02-18T01:24:11.565Z,6.24
2017-02-18T01:25:12.252Z,6.22
2017-02-18T01:26:12.924Z,6.22
2017-02-18T01:27:13.622Z,6.2
2017-02-18T01:28:14.320Z,6.22
2017-02-18T01:29:15.090Z,6.2
2017-02-18T01:30:15.801Z,6.22
2017-02-18T01:31:16.514Z,6.2
2017-02-18T01:32:17.215Z,6.14
2017-02-18T01:33:17.893Z,6.27
2017-02-18T01:34:18.579Z,6.2
2017-02-18T01:35:19.270Z,6.24
2017-02-18T01:36:19.972Z,6.2
2017-02-18T01:37:20.653Z,6.2
2017-02-18T01:38:21.344Z,6.28
2017-02-18T01:39:22.049Z,6.16
2017-02-18T01:40:22.746Z,6.2
2017-02-18T01:41:23.418Z,6.26
2017-02-18T01:42:24.098Z,6.24
2017-02-18T01:43:24.793Z,6.17
2017-02-18T01:44:25.488Z,6.22
2017-02-18T01:45:26.185Z,6.2
2017-02-18T01:46:26.883Z,6.24
2017-02-18T01:47:27.574Z,6.17
2017-02-18T01:48:28.267Z,6.14
2017-02-18T01:49:28.952Z,6.2
2017-02-18T01:50:29.651Z,6.22
2017-02-18T01:51:30.326Z,6.24
2017-02-18T01:52:31.016Z,6.19
2017-02-18T01:53:31.737Z,6.2
2017-02-18T01:54:32.415Z,6.2
2017-02-18T01:55:33.121Z,6.17
2017-02-18T01:56:33.812Z,6.2
2017-02-18T01:57:34.505Z,6.12
2017-02-18T01:58:35.189Z,6.09
2017-02-18T01:59:35.877Z,6.2
2017-02-18T02:00:36.578Z,6.19
2017-02-18T02:01:37.268Z,6.19
2017-02-18T02:02:37.975Z,6.11
2017-02-18T02:03:38.654Z,6.12
2017-02-18T02:04:39.334Z,6.28
2017-02-18T02:05:40.013Z,6.19
2017-02-18T02:06:40.710Z,6.27
2017-02-18T02:07:41.397Z,6.16
2017-02-18T02:08:42.071Z,6.17
2017-02-18T02:09:42.808Z,6.22
2017-02-18T02:10:43.507Z,6.17
2017-02-18T02:11:44.196Z,6.19
2017-02-18T02:12:44.904Z,6.19
2017-02-18T02:13:45.598Z,6.24
2017-02-18T02:14:46.267Z,6.14
2017-02-18T02:15:46.975Z,6.19
2017-02-18T02:16:47.642Z,6.17
2017-02-18T02:17:48.312Z,6.17
2017-02-18T02:18:48.989Z,6.16
2017-02-18T02:19:49.666Z,6.08
2017-02-18T02:20:50.362Z,6.09
2017-02-18T02:21:51.040Z,6.07
2017-02-18T02:22:51.732Z,6.07
2017-02-18T02:23:52.396Z,6.07
2017-02-18T02:24:53.071Z,6.09
2017-02-18T02:25:53.740Z,6.11
2017-02-18T02:26:54.418Z,6.14
2017-02-18T02:27:55.079Z,6.12
2017-02-18T02:28:55.750Z,6.11
2017-02-18T02:29:56.424Z,6.05
2017-02-18T02:30:57.100Z,6.08
2017-02-18T02:31:57.772Z,6.11
2017-02-18T02:32:58.452Z,6.11
2017-02-18T02:33:59.119Z,6.08
2017-02-18T02:34:59.794Z,6.14
2017-02-18T02:36:00.492Z,6.12
2017-02-18T02:37:01.176Z,6.11
2017-02-18T02:38:01.858Z,6.02
2017-02-18T02:39:02.525Z,6.04
2017-02-18T02:40:03.207Z,6.04
2017-02-18T02:41:03.874Z,6.01
2017-02-18T02:42:04.573Z,6.07
2017-02-18T02:43:05.266Z,6.07
2017-02-18T02:44:05.953Z,6.09
2017-02-18T02:45:06.677Z,6.02
2017-02-18T02:46:07.344Z,6.11
2017-02-18T02:47:08.008Z,6.07
2017-02-18T02:48:08.701Z,6.11
2017-02-18T02:49:09.392Z,6.07
2017-02-18T02:50:10.084Z,6.14
2017-02-18T02:51:10.751Z,6.05
2017-02-18T02:52:11.447Z,6.04
2017-02-18T02:53:12.136Z,6.11
2017-02-18T02:54:12.825Z,6.11
2017-02-18T02:55:13.484Z,6.12
2017-02-18T02:56:14.174Z,6.09
2017-02-18T02:57:14.883Z,6.04
2017-02-18T02:58:15.558Z,6.07
2017-02-18T02:59:16.249Z,6.09
2017-02-18T03:00:16.985Z,6.09
2017-02-18T03:01:17.701Z,6.05
2017-02-18T03:02:18.400Z,6.04
2017-02-18T03:03:19.062Z,6.08
2017-02-18T03:04:19.741Z,6.07
2017-02-18T03:05:20.405Z,6.08
2017-02-18T03:06:21.101Z,6.02
2017-02-18T03:07:21.803Z,6.01
2017-02-18T03:08:22.558Z,5.99
2017-02-18T03:09:23.214Z,6.02
2017-02-18T03:10:23.878Z,6.08
2017-02-18T03:11:24.540Z,6.02
2017-02-18T03:12:25.213Z,6.02
2017-02-18T03:13:25.897Z,6.05
2017-02-18T03:14:26.587Z,6.04
2017-02-18T03:15:27.296Z,5.99
2017-02-18T03:16:28.000Z,6.07
2017-02-18T03:17:28.680Z,5.99
2017-02-18T03:18:29.355Z,6.04
2017-02-18T03:19:30.022Z,6.04
2017-02-18T03:20:30.695Z,6.04
2017-02-18T03:21:31.421Z,6.02
2017-02-18T03:22:32.123Z,5.97
2017-02-18T03:23:32.809Z,5.99
2017-02-18T03:24:33.499Z,5.99
2017-02-18T03:25:34.208Z,5.98
2017-02-18T03:26:34.885Z,5.99
2017-02-18T03:27:35.554Z,5.99
2017-02-18T03:28:36.237Z,5.93
2017-02-18T03:29:36.911Z,5.91
2017-02-18T03:30:37.589Z,5.91
2017-02-18T03:31:38.292Z,5.89
2017-02-18T03:32:38.983Z,5.93
2017-02-18T03:33:39.675Z,6.04
2017-02-18T03:34:40.360Z,5.87
2017-02-18T03:35:41.045Z,5.91
2017-02-18T03:36:41.757Z,5.89
2017-02-18T03:37:42.435Z,5.98
2017-02-18T03:38:43.148Z,5.94
2017-02-18T03:39:43.833Z,5.89
2017-02-18T03:40:44.525Z,5.87
2017-02-18T03:41:45.259Z,5.9
2017-02-18T03:42:45.961Z,5.94
2017-02-18T03:43:46.630Z,5.97
2017-02-18T03:44:47.357Z,5.9
2017-02-18T03:45:48.050Z,5.86
2017-02-18T03:46:48.767Z,5.91
2017-02-18T03:47:49.452Z,5.86
2017-02-18T03:48:50.142Z,5.9
2017-02-18T03:49:50.816Z,5.76
2017-02-18T03:50:51.506Z,5.83
2017-02-18T03:51:52.209Z,5.79
2017-02-18T03:52:52.894Z,5.65
2017-02-18T03:53:53.599Z,5.75
2017-02-18T03:54:54.283Z,5.69
2017-02-18T03:55:54.969Z,5.65
2017-02-18T03:56:55.673Z,5.64
2017-02-18T03:57:56.374Z,5.64
2017-02-18T03:58:57.061Z,5.59
2017-02-18T03:59:57.738Z,5.56
2017-02-18T04:00:58.439Z,5.56
2017-02-18T04:01:59.136Z,5.56
2017-02-18T04:02:59.823Z,5.53
2017-02-18T04:04:00.514Z,5.51
2017-02-18T04:05:01.216Z,5.56
2017-02-18T04:06:01.896Z,5.61
2017-02-18T04:07:02.598Z,5.53
2017-02-18T04:08:03.279Z,5.53
2017-02-18T04:09:03.952Z,5.56
2017-02-18T04:10:04.660Z,5.61
2017-02-18T04:11:05.317Z,5.59
2017-02-18T04:12:06.014Z,5.56
2017-02-18T04:13:06.703Z,5.62
2017-02-18T04:14:07.406Z,5.53
2017-02-18T04:15:08.091Z,5.53
2017-02-18T04:16:08.787Z,5.5
2017-02-18T04:17:09.478Z,5.61
2017-02-18T04:18:10.163Z,5.61
2017-02-18T04:19:10.893Z,5.53
2017-02-18T04:20:11.587Z,5.48
2017-02-18T04:21:12.272Z,5.46
2017-02-18T04:22:12.954Z,5.5
2017-02-18T04:23:13.619Z,5.53
2017-02-18T04:24:14.293Z,5.51
2017-02-18T04:25:14.961Z,5.57
2017-02-18T04:26:15.641Z,5.61
2017-02-18T04:27:16.318Z,5.61
2017-02-18T04:28:16.994Z,5.62
2017-02-18T04:29:17.668Z,5.5
2017-02-18T04:30:18.338Z,5.62
2017-02-18T04:31:19.005Z,5.57
2017-02-18T04:32:19.681Z,5.51
2017-02-18T04:33:20.353Z,5.64
2017-02-18T04:34:21.022Z,5.53
2017-02-18T04:35:21.685Z,5.62
2017-02-18T04:36:22.351Z,5.69
2017-02-18T04:37:23.033Z,5.61
2017-02-18T04:38:23.699Z,5.62
2017-02-18T04:39:24.376Z,5.61
2017-02-18T04:40:25.041Z,5.61
2017-02-18T04:41:25.720Z,5.65
2017-02-18T04:42:26.386Z,5.57
2017-02-18T04:43:27.071Z,5.69
2017-02-18T04:44:27.797Z,5.71
2017-02-18T04:45:28.475Z,5.73
2017-02-18T04:46:29.160Z,5.66
2017-02-18T04:47:29.854Z,5.64
2017-02-18T04:48:30.532Z,5.68
2017-02-18T04:49:31.251Z,5.66
2017-02-18T04:50:31.919Z,5.69
2017-02-18T04:51:32.611Z,5.66
2017-02-18T04:52:33.296Z,5.72
2017-02-18T04:53:33.990Z,5.71
2017-02-18T04:54:34.660Z,5.72
2017-02-18T04:55:35.334Z,5.69
2017-02-18T04:56:36.054Z,5.72
2017-02-18T04:57:36.679Z,5.66
2017-02-18T04:58:37.354Z,5.66
2017-02-18T04:59:38.023Z,5.59
2017-02-18T05:00:38.704Z,5.68
2017-02-18T05:01:39.374Z,5.71
2017-02-18T05:02:40.040Z,5.66
2017-02-18T05:03:40.766Z,5.75
2017-02-18T05:04:41.444Z,5.69
2017-02-18T05:05:42.168Z,5.71
2017-02-18T05:06:42.842Z,5.71
2017-02-18T05:07:43.524Z,5.64
2017-02-18T05:08:44.234Z,5.71
2017-02-18T05:09:44.914Z,5.69
2017-02-18T05:10:45.579Z,5.64
2017-02-18T05:11:46.251Z,5.71
2017-02-18T05:12:46.941Z,5.72
2017-02-18T05:13:47.622Z,5.64
2017-02-18T05:14:48.306Z,5.66
2017-02-18T05:15:48.973Z,5.71
2017-02-18T05:16:49.648Z,5.73
2017-02-18T05:17:50.324Z,5.62
2017-02-18T05:18:51.011Z,5.68
2017-02-18T05:19:51.708Z,5.72
2017-02-18T05:20:52.437Z,5.72
2017-02-18T05:21:53.105Z,5.73
2017-02-18T05:22:53.782Z,5.73
2017-02-18T05:23:54.465Z,5.71
2017-02-18T05:24:55.133Z,5.8
2017-02-18T05:25:55.812Z,5.8
2017-02-18T05:26:56.484Z,5.72
2017-02-18T05:27:57.166Z,5.68
2017-02-18T05:28:57.843Z,5.65
2017-02-18T05:29:58.532Z,5.64
2017-02-18T05:30:59.276Z,5.64
2017-02-18T05:31:59.956Z,5.71
2017-02-18T05:33:00.644Z,5.71
2017-02-18T05:34:01.342Z,5.71
2017-02-18T05:35:02.015Z,5.69
2017-02-18T05:36:02.688Z,5.71
2017-02-18T05:37:03.360Z,5.72
2017-02-18T05:38:04.030Z,5.71
2017-02-18T05:39:04.711Z,5.68
2017-02-18T05:40:05.430Z,5.66
2017-02-18T05:41:06.141Z,5.66
2017-02-18T05:42:06.820Z,5.69
2017-02-18T05:43:07.494Z,5.66
2017-02-18T05:44:08.181Z,5.66
2017-02-18T05:45:08.867Z,5.69
2017-02-18T05:46:09.554Z,5.66
2017-02-18T05:47:10.221Z,5.68
2017-02-18T05:48:10.918Z,5.71
2017-02-18T05:49:11.598Z,5.66
2017-02-18T05:50:12.285Z,5.65
2017-02-18T05:51:12.950Z,5.68
2017-02-18T05:52:13.641Z,5.66
2017-02-18T05:53:14.307Z,5.65
2017-02-18T05:54:14.970Z,5.68
2017-02-18T05:55:15.644Z,5.66
2017-02-18T05:56:16.318Z,5.64
2017-02-18T05:57:17.033Z,5.71
2017-02-18T05:58:17.714Z,5.68
2017-02-18T05:59:18.389Z,5.64
2017-02-18T06:00:19.089Z,5.71
2017-02-18T06:01:19.772Z,5.66
2017-02-18T06:02:20.453Z,5.66
2017-02-18T06:03:21.131Z,5.57
2017-02-18T06:04:21.799Z,5.73
2017-02-18T06:05:22.475Z,5.62
2017-02-18T06:06:23.152Z,5.53
2017-02-18T06:07:23.820Z,5.66
2017-02-18T06:08:24.495Z,5.66
2017-02-18T06:09:25.162Z,5.68
2017-02-18T06:10:25.828Z,5.65
2017-02-18T06:11:26.501Z,5.69
2017-02-18T06:12:27.186Z,5.73
2017-02-18T06:13:27.923Z,5.66
2017-02-18T06:14:28.592Z,5.75
2017-02-18T06:15:29.280Z,5.75
2017-02-18T06:16:29.973Z,5.66
2017-02-18T06:17:30.637Z,5.73
2017-02-18T06:18:31.316Z,5.69
2017-02-18T06:19:31.987Z,5.61
2017-02-18T06:20:32.664Z,5.69
2017-02-18T06:21:33.324Z,5.71
2017-02-18T06:22:33.998Z,5.59
2017-02-18T06:23:34.669Z,5.61
2017-02-18T06:24:35.350Z,5.62
2017-02-18T06:25:36.010Z,5.68
2017-02-18T06:26:36.688Z,5.64
2017-02-18T06:27:37.384Z,5.53
2017-02-18T06:28:38.085Z,5.64
2017-02-18T06:29:38.753Z,5.62
2017-02-18T06:30:39.445Z,5.65
2017-02-18T06:31:40.138Z,5.61
2017-02-18T06:32:40.821Z,5.53
2017-02-18T06:33:41.499Z,5.48
2017-02-18T06:34:42.166Z,5.53
2017-02-18T06:35:42.843Z,5.56
2017-02-18T06:36:43.522Z,5.48
2017-02-18T06:37:44.186Z,5.44
2017-02-18T06:38:44.854Z,5.5
2017-02-18T06:39:45.535Z,5.48
2017-02-18T06:40:46.240Z,5.48
2017-02-18T06:41:46.923Z,5.47
2017-02-18T06:42:47.601Z,5.47
2017-02-18T06:43:48.280Z,5.47
2017-02-18T06:44:48.952Z,5.48
2017-02-18T06:45:49.626Z,5.5
2017-02-18T06:46:50.301Z,5.46
2017-02-18T06:47:50.973Z,5.44
2017-02-18T06:48:51.641Z,5.44
2017-02-18T06:49:52.316Z,5.48
2017-02-18T06:50:52.988Z,5.47
2017-02-18T06:51:53.661Z,5.46
2017-02-18T06:52:54.335Z,5.35
2017-02-18T06:53:55.020Z,5.39
2017-02-18T06:54:55.776Z,5.44
2017-02-18T06:55:56.449Z,5.32
2017-02-18T06:56:57.132Z,5.44
2017-02-18T06:57:57.796Z,5.33
2017-02-18T06:58:58.466Z,5.38
2017-02-18T06:59:59.159Z,5.35
2017-02-18T07:00:59.850Z,5.38
2017-02-18T07:02:00.541Z,5.41
2017-02-18T07:03:01.231Z,5.44
2017-02-18T07:04:01.921Z,5.38
2017-02-18T07:05:02.599Z,5.41
2017-02-18T07:06:03.293Z,5.41
2017-02-18T07:07:03.987Z,5.41
2017-02-18T07:08:04.688Z,5.38
2017-02-18T07:09:05.387Z,5.35
2017-02-18T07:10:06.101Z,5.44
2017-02-18T07:11:06.797Z,5.46
2017-02-18T07:12:07.513Z,5.35
2017-02-18T07:13:08.210Z,5.39
2017-02-18T07:14:08.888Z,5.41
2017-02-18T07:15:09.576Z,5.46
2017-02-18T07:16:10.249Z,5.33
2017-02-18T07:17:10.929Z,5.38
2017-02-18T07:18:11.612Z,5.44
2017-02-18T07:19:12.280Z,5.41
2017-02-18T07:20:12.987Z,5.44
2017-02-18T07:21:13.770Z,5.44
2017-02-18T07:22:14.468Z,5.41
2017-02-18T07:23:15.164Z,5.39
2017-02-18T07:24:15.847Z,5.36
2017-02-18T07:25:16.566Z,5.39
2017-02-18T07:26:17.271Z,5.36
2017-02-18T07:27:17.973Z,5.32
2017-02-18T07:28:18.674Z,5.33
2017-02-18T07:29:19.348Z,5.36
2017-02-18T07:30:20.014Z,5.33
2017-02-18T07:31:20.703Z,5.36
2017-02-18T07:32:21.393Z,5.39
2017-02-18T07:33:22.077Z,5.33
2017-02-18T07:34:22.775Z,5.36
2017-02-18T07:35:23.487Z,5.35
2017-02-18T07:36:24.173Z,5.25
2017-02-18T07:37:24.855Z,5.33
2017-02-18T07:38:25.563Z,5.41
2017-02-18T07:39:26.272Z,5.25
2017-02-18T07:40:26.964Z,5.33
2017-02-18T07:41:27.680Z,5.38
2017-02-18T07:42:28.401Z,5.36
2017-02-18T07:43:29.065Z,5.33
2017-02-18T07:44:29.735Z,5.38
2017-02-18T07:45:30.414Z,5.44
2017-02-18T07:46:31.110Z,5.36
2017-02-18T07:47:31.815Z,5.32
2017-02-18T07:48:32.497Z,5.36
2017-02-18T07:49:33.180Z,5.3
2017-02-18T07:50:33.887Z,5.35
2017-02-18T07:51:34.562Z,5.32
2017-02-18T07:52:35.266Z,5.36
2017-02-18T07:53:35.955Z,5.39
2017-02-18T07:54:36.654Z,5.39
2017-02-18T07:55:37.350Z,5.26
2017-02-18T07:56:38.074Z,5.38
2017-02-18T07:57:38.760Z,5.41
2017-02-18T07:58:39.462Z,5.48
2017-02-18T07:59:40.160Z,5.47
2017-02-18T08:00:40.862Z,5.41
2017-02-18T08:01:41.568Z,5.36
2017-02-18T08:02:42.255Z,5.39
2017-02-18T08:03:42.930Z,5.33
2017-02-18T08:04:43.623Z,5.32
2017-02-18T08:05:44.342Z,5.38
2017-02-18T08:06:45.020Z,5.32
2017-02-18T08:07:45.723Z,5.36
2017-02-18T08:08:46.430Z,5.26
2017-02-18T08:09:47.127Z,5.44
2017-02-18T08:10:47.837Z,5.38
2017-02-18T08:11:48.519Z,5.39
2017-02-18T08:12:49.235Z,5.35
2017-02-18T08:13:49.926Z,5.3
2017-02-18T08:14:50.593Z,5.46
2017-02-18T08:15:51.290Z,5.39
2017-02-18T08:16:51.993Z,5.41
2017-02-18T08:17:52.661Z,5.43
2017-02-18T08:18:53.374Z,5.41
2017-02-18T08:19:54.081Z,5.36
2017-02-18T08:20:54.784Z,5.41
2017-02-18T08:21:55.473Z,5.38
2017-02-18T08:22:56.186Z,5.38
2017-02-18T08:23:56.886Z,5.43
2017-02-18T08:24:57.607Z,5.3
2017-02-18T08:25:58.309Z,5.36
2017-02-18T08:26:59.013Z,5.5
2017-02-18T08:27:59.710Z,5.41
2017-02-18T08:29:00.410Z,5.47
2017-02-18T08:30:01.096Z,5.46
2017-02-18T08:31:01.784Z,5.41
2017-02-18T08:32:02.477Z,5.41
2017-02-18T08:33:03.158Z,5.47
2017-02-18T08:34:03.858Z,5.47
2017-02-18T08:35:04.554Z,5.48
2017-02-18T08:36:05.245Z,5.3
2017-02-18T08:37:05.935Z,5.3
2017-02-18T08:38:06.646Z,5.32
2017-02-18T08:39:07.349Z,5.47
2017-02-18T08:40:08.034Z,5.36
2017-02-18T08:41:08.717Z,5.39
2017-02-18T08:42:09.416Z,5.38
2017-02-18T08:43:10.120Z,5.35
2017-02-18T08:44:10.807Z,5.36
2017-02-18T08:45:11.503Z,5.32
2017-02-18T08:46:12.187Z,5.43
2017-02-18T08:47:12.899Z,5.36
2017-02-18T08:48:13.580Z,5.39
2017-02-18T08:49:14.281Z,5.41
2017-02-18T08:50:14.981Z,5.36
2017-02-18T08:51:15.667Z,5.33
2017-02-18T08:52:16.362Z,5.35
2017-02-18T08:53:17.090Z,5.33
2017-02-18T08:54:17.779Z,5.41
2017-02-18T08:55:18.518Z,5.3
2017-02-18T08:56:19.184Z,5.33
2017-02-18T08:57:19.860Z,5.39
2017-02-18T08:58:20.549Z,5.53
2017-02-18T08:59:21.251Z,5.5
2017-02-18T09:00:21.939Z,5.5
2017-02-18T09:01:22.656Z,5.5
2017-02-18T09:02:23.342Z,5.51
2017-02-18T09:03:24.043Z,5.41
2017-02-18T09:04:24.703Z,5.51
2017-02-18T09:05:25.409Z,5.51
2017-02-18T09:06:26.106Z,5.57
2017-02-18T09:07:26.807Z,5.5
2017-02-18T09:08:27.521Z,5.64
2017-02-18T09:09:28.219Z,5.62
2017-02-18T09:10:28.921Z,5.57
2017-02-18T09:11:29.630Z,5.51
2017-02-18T09:12:30.324Z,5.59
2017-02-18T09:13:31.020Z,5.61
2017-02-18T09:14:31.740Z,5.48
2017-02-18T09:15:32.453Z,5.57
2017-02-18T09:16:33.126Z,5.64
2017-02-18T09:17:33.842Z,5.61
2017-02-18T09:18:34.517Z,5.75
2017-02-18T09:19:35.281Z,5.73
2017-02-18T09:20:35.988Z,5.68
2017-02-18T09:21:36.685Z,5.69
2017-02-18T09:22:37.389Z,5.73
2017-02-18T09:23:38.139Z,5.72
2017-02-18T09:24:38.806Z,5.66
2017-02-18T09:25:39.530Z,5.68
2017-02-18T09:26:40.234Z,5.71
2017-02-18T09:27:40.942Z,5.68
2017-02-18T09:28:41.657Z,5.72
2017-02-18T09:29:42.355Z,5.69
2017-02-18T09:30:43.048Z,5.66
2017-02-18T09:31:43.774Z,5.69
2017-02-18T09:32:44.482Z,5.75
2017-02-18T09:33:45.202Z,5.68
2017-02-18T09:34:45.902Z,5.65
2017-02-18T09:35:46.606Z,5.72
2017-02-18T09:36:47.313Z,5.71
2017-02-18T09:37:48.015Z,5.73
2017-02-18T09:38:48.718Z,5.64
2017-02-18T09:39:49.409Z,5.72
2017-02-18T09:40:50.088Z,5.72
2017-02-18T09:41:50.782Z,5.72
2017-02-18T09:42:51.514Z,5.73
2017-02-18T09:43:52.243Z,5.76
2017-02-18T09:44:52.959Z,5.84
2017-02-18T09:45:53.648Z,5.79
2017-02-18T09:46:54.371Z,5.76
2017-02-18T09:47:55.092Z,5.86
2017-02-18T09:48:55.823Z,5.87
2017-02-18T09:49:56.550Z,5.84
2017-02-18T09:50:57.250Z,5.76
2017-02-18T09:51:57.951Z,5.82
2017-02-18T09:52:58.712Z,5.8
2017-02-18T09:53:59.409Z,5.87
2017-02-18T09:55:00.144Z,5.83
2017-02-18T09:56:00.880Z,5.84
2017-02-18T09:57:01.615Z,5.87
2017-02-18T09:58:02.326Z,5.89
2017-02-18T09:59:03.083Z,5.94
2017-02-18T10:00:03.787Z,5.99
2017-02-18T10:01:04.528Z,5.93
2017-02-18T10:02:05.202Z,5.9
2017-02-18T10:03:05.911Z,5.97
2017-02-18T10:04:06.618Z,5.94
2017-02-18T10:05:07.334Z,5.99
2017-02-18T10:06:08.088Z,5.98
2017-02-18T10:07:08.765Z,5.93
2017-02-18T10:08:09.510Z,5.97
2017-02-18T10:09:10.239Z,6.05
2017-02-18T10:10:10.969Z,5.99
2017-02-18T10:11:11.671Z,6.01
2017-02-18T10:12:12.390Z,5.98
2017-02-18T10:13:13.082Z,5.99
2017-02-18T10:14:13.864Z,5.93
2017-02-18T10:15:14.553Z,6.01
2017-02-18T10:16:15.337Z,5.97
2017-02-18T10:17:16.031Z,5.98
2017-02-18T10:18:16.741Z,5.98
2017-02-18T10:19:17.450Z,6.08
2017-02-18T10:20:18.209Z,5.98
2017-02-18T10:21:18.873Z,6.01
2017-02-18T10:22:19.537Z,5.99
2017-02-18T10:23:20.249Z,6.02
2017-02-18T10:24:20.942Z,6.04
2017-02-18T10:25:21.656Z,6.11
2017-02-18T10:26:22.327Z,6.04
2017-02-18T10:27:23.056Z,6.08
2017-02-18T10:28:23.805Z,6.04
2017-02-18T10:29:24.453Z,6.01
2017-02-18T10:30:25.153Z,6.04
2017-02-18T10:31:25.889Z,6.05
2017-02-18T10:32:26.626Z,6.02
2017-02-18T10:33:27.338Z,6.04
2017-02-18T10:34:28.044Z,6.04
2017-02-18T10:35:28.767Z,6.01
2017-02-18T10:36:29.482Z,6.04
2017-02-18T10:37:30.262Z,6.02
2017-02-18T10:38:30.988Z,6.08
2017-02-18T10:39:31.764Z,6.08
2017-02-18T10:40:32.411Z,6.08
2017-02-18T10:41:33.137Z,6.24
2017-02-18T10:42:33.884Z,6.16
2017-02-18T10:43:34.609Z,6.24
2017-02-18T10:44:35.301Z,6.19
2017-02-18T10:45:36.055Z,6.16
2017-02-18T10:46:36.783Z,6.27
2017-02-18T10:47:37.502Z,6.26
2017-02-18T10:48:38.298Z,6.24
2017-02-18T10:49:39.021Z,6.3
2017-02-18T10:50:39.739Z,6.14
2017-02-18T10:51:40.496Z,6.19
2017-02-18T10:52:41.215Z,6.22
2017-02-18T10:53:41.989Z,6.26
2017-02-18T10:54:42.687Z,6.27
2017-02-18T10:55:43.489Z,6.16
2017-02-18T10:56:44.189Z,6.19
2017-02-18T10:57:44.909Z,6.2
2017-02-18T10:58:45.631Z,6.16
2017-02-18T10:59:46.382Z,6.16
2017-02-18T11:00:47.126Z,6.19
2017-02-18T11:01:47.840Z,6.05
2017-02-18T11:02:48.560Z,6.26
2017-02-18T11:03:49.297Z,6.19
2017-02-18T11:04:50.022Z,6.2
2017-02-18T11:05:50.782Z,6.2
2017-02-18T11:06:51.513Z,6.2
2017-02-18T11:07:52.217Z,6.19
2017-02-18T11:08:52.976Z,6.28
2017-02-18T11:09:53.753Z,6.24
2017-02-18T11:10:54.443Z,6.33
2017-02-18T11:11:55.139Z,6.31
2017-02-18T11:12:55.862Z,6.26
2017-02-18T11:13:56.574Z,6.26
2017-02-18T11:14:57.310Z,6.24
2017-02-18T11:15:58.036Z,6.28
2017-02-18T11:16:58.727Z,6.28
2017-02-18T11:17:59.449Z,6.28
2017-02-18T11:19:00.149Z,6.38
2017-02-18T11:20:00.861Z,6.41
2017-02-18T11:21:01.606Z,6.45
2017-02-18T11:22:02.319Z,6.44
2017-02-18T11:23:03.030Z,6.39
2017-02-18T11:24:03.722Z,6.42
2017-02-18T11:25:04.424Z,6.31
2017-02-18T11:26:05.171Z,6.28
2017-02-18T11:27:05.869Z,6.39
2017-02-18T11:28:06.602Z,6.35
2017-02-18T11:29:07.353Z,6.36
2017-02-18T11:30:08.060Z,6.33
2017-02-18T11:31:08.780Z,6.36
2017-02-18T11:32:09.487Z,6.28
2017-02-18T11:33:10.211Z,6.27
2017-02-18T11:34:10.931Z,6.3
2017-02-18T11:35:11.662Z,6.26
2017-02-18T11:36:12.335Z,6.45
2017-02-18T11:37:13.121Z,6.42
2017-02-18T11:38:13.798Z,6.39
2017-02-18T11:39:14.531Z,6.46
2017-02-18T11:40:15.231Z,6.44
2017-02-18T11:41:15.951Z,6.42
2017-02-18T11:42:16.658Z,6.41
2017-02-18T11:43:17.373Z,6.38
2017-02-18T11:44:18.171Z,6.45
2017-02-18T11:45:18.992Z,6.41
2017-02-18T11:46:19.734Z,6.39
2017-02-18T11:47:20.487Z,6.48
2017-02-18T11:48:21.178Z,6.52
2017-02-18T11:49:21.943Z,6.49
2017-02-18T11:50:22.783Z,6.51
2017-02-18T11:51:23.513Z,6.51
2017-02-18T11:52:24.227Z,6.54
2017-02-18T11:53:24.948Z,6.54
2017-02-18T11:54:25.616Z,6.6
2017-02-18T11:55:26.310Z,6.49
2017-02-18T11:56:27.008Z,6.57
2017-02-18T11:57:27.772Z,6.56
2017-02-18T11:58:28.491Z,6.49
2017-02-18T11:59:29.183Z,6.48
2017-02-18T12:00:29.864Z,6.56
2017-02-18T12:01:30.570Z,6.52
2017-02-18T12:02:31.298Z,6.52
2017-02-18T12:03:32.032Z,6.51
2017-02-18T12:04:32.747Z,6.52
2017-02-18T12:05:33.451Z,6.52
2017-02-18T12:06:34.187Z,6.54
2017-02-18T12:07:34.889Z,6.51
2017-02-18T12:08:35.553Z,6.48
2017-02-18T12:09:36.247Z,6.51
2017-02-18T12:10:36.964Z,6.49
2017-02-18T12:11:37.660Z,6.54
2017-02-18T12:12:38.344Z,6.57
2017-02-18T12:13:39.053Z,6.48
2017-02-18T12:14:39.761Z,6.52
2017-02-18T12:15:40.497Z,6.52
2017-02-18T12:16:41.220Z,6.49
2017-02-18T12:17:41.918Z,6.48
2017-02-18T12:18:42.631Z,6.48
2017-02-18T12:19:43.328Z,6.49
2017-02-18T12:20:44.031Z,6.56
2017-02-18T12:21:44.804Z,6.51
2017-02-18T12:22:45.595Z,6.52
2017-02-18T12:23:46.364Z,6.57
2017-02-18T12:24:47.107Z,6.48
2017-02-18T12:25:47.858Z,6.49
2017-02-18T12:26:48.598Z,6.44
2017-02-18T12:27:49.339Z,6.39
2017-02-18T12:28:50.095Z,6.41
2017-02-18T12:29:50.840Z,6.39
2017-02-18T12:30:51.617Z,6.48
2017-02-18T12:31:52.309Z,6.45
2017-02-18T12:32:53.033Z,6.48
2017-02-18T12:33:53.786Z,6.49
2017-02-18T12:34:54.529Z,6.52
2017-02-18T12:35:55.297Z,6.54
2017-02-18T12:36:56.078Z,6.49
2017-02-18T12:37:56.854Z,6.48
2017-02-18T12:38:57.575Z,6.48
2017-02-18T12:39:58.269Z,6.46
2017-02-18T12:40:59.032Z,6.48
2017-02-18T12:41:59.744Z,6.54
2017-02-18T12:43:00.463Z,6.52
2017-02-18T12:44:01.160Z,6.49
2017-02-18T12:45:01.888Z,6.48
2017-02-18T12:46:02.604Z,6.44
2017-02-18T12:47:03.336Z,6.52
2017-02-18T12:48:04.035Z,6.45
2017-02-18T12:49:04.725Z,6.41
2017-02-18T12:50:05.419Z,6.42
2017-02-18T12:51:06.142Z,6.41
2017-02-18T12:52:06.976Z,6.39
2017-02-18T12:53:07.685Z,6.45
2017-02-18T12:54:08.409Z,6.41
2017-02-18T12:55:09.156Z,6.46
2017-02-18T12:56:09.866Z,6.42
2017-02-18T12:57:10.565Z,6.41
2017-02-18T12:58:11.302Z,6.27
2017-02-18T12:59:12.055Z,6.3
2017-02-18T13:00:12.783Z,6.36
2017-02-18T13:01:13.481Z,6.3
2017-02-18T13:02:14.173Z,6.45
2017-02-18T13:03:14.861Z,6.41
2017-02-18T13:04:15.589Z,6.28
2017-02-18T13:05:16.327Z,6.26
2017-02-18T13:06:17.037Z,6.31
2017-02-18T13:07:17.775Z,6.33
2017-02-18T13:08:18.478Z,6.48
2017-02-18T13:09:19.206Z,6.45
2017-02-18T13:10:19.944Z,6.45
2017-02-18T13:11:20.637Z,6.39
2017-02-18T13:12:21.398Z,6.28
2017-02-18T13:13:22.088Z,6.27
2017-02-18T13:14:22.823Z,6.26
2017-02-18T13:15:23.605Z,6.27
2017-02-18T13:16:24.342Z,6.35
2017-02-18T13:17:25.166Z,6.3
2017-02-18T13:18:25.908Z,6.26
2017-02-18T13:19:26.668Z,6.26
2017-02-18T13:20:27.361Z,6.17
2017-02-18T13:21:28.131Z,6.28
2017-02-18T13:22:28.879Z,6.27
2017-02-18T13:23:29.614Z,6.27
2017-02-18T13:24:30.360Z,6.31
2017-02-18T13:25:31.082Z,6.28
2017-02-18T13:26:31.857Z,6.19
2017-02-18T13:27:32.577Z,6.19
2017-02-18T13:28:33.275Z,6.26
2017-02-18T13:29:34.074Z,6.16